sensor_id;sensor_type;location;lat;lon;timestamp;P1;durP1;ratioP1;P2;durP2;ratioP2
68938;SDS011;59064;45.294;11.816;2024-02-23T00:00:09;55.50;;;29.70;;
68938;SDS011;59064;45.294;11.816;2024-02-23T00:02:37;63.20;;;32.10;;
68938;SDS011;59064;45.294;11.816;2024-02-23T00:05:02;70.40;;;37.20;;
68938;SDS011;59064;45.294;11.816;2024-02-23T00:07:28;64.90;;;34.40;;
68938;SDS011;59064;45.294;11.816;2024-02-23T00:09:54;70.20;;;39.40;;
68938;SDS011;59064;45.294;11.816;2024-02-23T00:12:19;71.60;;;36.50;;
68938;SDS011;59064;45.294;11.816;2024-02-23T00:14:45;62.10;;;32.60;;
68938;SDS011;59064;45.294;11.816;2024-02-23T00:17:11;67.10;;;33.30;;
68938;SDS011;59064;45.294;11.816;2024-02-23T00:19:37;70.80;;;36.10;;
68938;SDS011;59064;45.294;11.816;2024-02-23T00:22:02;67.50;;;37.80;;
68938;SDS011;59064;45.294;11.816;2024-02-23T00:24:29;76.50;;;40.40;;
68938;SDS011;59064;45.294;11.816;2024-02-23T00:26:55;55.20;;;26.40;;
68938;SDS011;59064;45.294;11.816;2024-02-23T00:29:21;60.00;;;32.10;;
68938;SDS011;59064;45.294;11.816;2024-02-23T00:31:47;66.90;;;37.40;;
68938;SDS011;59064;45.294;11.816;2024-02-23T00:34:15;69.90;;;35.90;;
68938;SDS011;59064;45.294;11.816;2024-02-23T00:36:42;62.70;;;32.60;;
68938;SDS011;59064;45.294;11.816;2024-02-23T00:39:10;56.90;;;31.60;;
68938;SDS011;59064;45.294;11.816;2024-02-23T00:41:36;65.70;;;34.10;;
68938;SDS011;59064;45.294;11.816;2024-02-23T00:44:03;62.00;;;33.60;;
68938;SDS011;59064;45.294;11.816;2024-02-23T00:46:29;61.00;;;30.90;;
68938;SDS011;59064;45.294;11.816;2024-02-23T00:48:57;64.40;;;34.70;;
68938;SDS011;59064;45.294;11.816;2024-02-23T00:51:22;35.20;;;19.60;;
68938;SDS011;59064;45.294;11.816;2024-02-23T00:53:49;66.00;;;34.80;;
68938;SDS011;59064;45.294;11.816;2024-02-23T00:56:16;66.90;;;34.40;;
68938;SDS011;59064;45.294;11.816;2024-02-23T00:58:41;59.10;;;31.20;;
68938;SDS011;59064;45.294;11.816;2024-02-23T01:01:07;58.30;;;31.20;;
68938;SDS011;59064;45.294;11.816;2024-02-23T01:03:35;62.50;;;33.40;;
68938;SDS011;59064;45.294;11.816;2024-02-23T01:06:01;42.80;;;23.00;;
68938;SDS011;59064;45.294;11.816;2024-02-23T01:08:27;37.60;;;20.60;;
68938;SDS011;59064;45.294;11.816;2024-02-23T01:10:52;47.20;;;24.60;;
68938;SDS011;59064;45.294;11.816;2024-02-23T01:13:17;57.20;;;32.20;;
68938;SDS011;59064;45.294;11.816;2024-02-23T01:15:44;53.80;;;28.00;;
68938;SDS011;59064;45.294;11.816;2024-02-23T01:18:09;61.30;;;33.60;;
68938;SDS011;59064;45.294;11.816;2024-02-23T01:20:35;64.00;;;35.60;;
68938;SDS011;59064;45.294;11.816;2024-02-23T01:23:01;54.80;;;29.60;;
68938;SDS011;59064;45.294;11.816;2024-02-23T01:25:26;55.10;;;29.00;;
68938;SDS011;59064;45.294;11.816;2024-02-23T01:27:52;51.80;;;27.40;;
68938;SDS011;59064;45.294;11.816;2024-02-23T01:30:17;43.80;;;22.30;;
68938;SDS011;59064;45.294;11.816;2024-02-23T01:32:44;58.40;;;30.80;;
68938;SDS011;59064;45.294;11.816;2024-02-23T01:35:10;59.20;;;31.70;;
68938;SDS011;59064;45.294;11.816;2024-02-23T01:37:36;54.80;;;27.80;;
68938;SDS011;59064;45.294;11.816;2024-02-23T01:40:02;60.80;;;34.80;;
68938;SDS011;59064;45.294;11.816;2024-02-23T01:42:31;57.10;;;33.50;;
68938;SDS011;59064;45.294;11.816;2024-02-23T01:44:56;60.10;;;31.40;;
68938;SDS011;59064;45.294;11.816;2024-02-23T01:47:22;63.60;;;34.10;;
68938;SDS011;59064;45.294;11.816;2024-02-23T01:49:50;65.90;;;36.80;;
68938;SDS011;59064;45.294;11.816;2024-02-23T01:52:16;58.80;;;33.40;;
68938;SDS011;59064;45.294;11.816;2024-02-23T01:54:43;58.00;;;32.00;;
68938;SDS011;59064;45.294;11.816;2024-02-23T01:57:09;62.90;;;33.30;;
68938;SDS011;59064;45.294;11.816;2024-02-23T01:59:35;61.30;;;31.10;;
68938;SDS011;59064;45.294;11.816;2024-02-23T02:02:04;66.20;;;34.70;;
68938;SDS011;59064;45.294;11.816;2024-02-23T02:04:30;65.00;;;34.10;;
68938;SDS011;59064;45.294;11.816;2024-02-23T02:06:59;65.50;;;34.00;;
68938;SDS011;59064;45.294;11.816;2024-02-23T02:09:26;59.30;;;33.80;;
68938;SDS011;59064;45.294;11.816;2024-02-23T02:11:52;55.50;;;29.00;;
68938;SDS011;59064;45.294;11.816;2024-02-23T02:14:18;58.30;;;30.40;;
68938;SDS011;59064;45.294;11.816;2024-02-23T02:16:44;53.60;;;27.90;;
68938;SDS011;59064;45.294;11.816;2024-02-23T02:19:13;46.10;;;26.00;;
68938;SDS011;59064;45.294;11.816;2024-02-23T02:21:41;52.40;;;28.20;;
68938;SDS011;59064;45.294;11.816;2024-02-23T02:24:06;55.90;;;28.40;;
68938;SDS011;59064;45.294;11.816;2024-02-23T02:26:32;48.30;;;26.90;;
68938;SDS011;59064;45.294;11.816;2024-02-23T02:28:59;52.50;;;27.70;;
68938;SDS011;59064;45.294;11.816;2024-02-23T02:31:26;55.90;;;28.80;;
68938;SDS011;59064;45.294;11.816;2024-02-23T02:33:51;52.10;;;28.50;;
68938;SDS011;59064;45.294;11.816;2024-02-23T02:36:17;50.50;;;26.90;;
68938;SDS011;59064;45.294;11.816;2024-02-23T02:38:43;51.30;;;28.00;;
68938;SDS011;59064;45.294;11.816;2024-02-23T02:41:09;51.80;;;28.60;;
68938;SDS011;59064;45.294;11.816;2024-02-23T02:43:34;51.90;;;29.50;;
68938;SDS011;59064;45.294;11.816;2024-02-23T02:46:00;51.20;;;28.50;;
68938;SDS011;59064;45.294;11.816;2024-02-23T02:48:25;51.20;;;28.00;;
68938;SDS011;59064;45.294;11.816;2024-02-23T02:50:51;49.20;;;26.40;;
68938;SDS011;59064;45.294;11.816;2024-02-23T02:53:17;49.00;;;27.80;;
68938;SDS011;59064;45.294;11.816;2024-02-23T02:55:43;53.60;;;28.10;;
68938;SDS011;59064;45.294;11.816;2024-02-23T02:58:10;50.00;;;27.60;;
68938;SDS011;59064;45.294;11.816;2024-02-23T03:00:37;51.90;;;27.20;;
68938;SDS011;59064;45.294;11.816;2024-02-23T03:03:03;49.40;;;25.50;;
68938;SDS011;59064;45.294;11.816;2024-02-23T03:05:28;44.40;;;22.50;;
68938;SDS011;59064;45.294;11.816;2024-02-23T03:07:54;46.50;;;23.10;;
68938;SDS011;59064;45.294;11.816;2024-02-23T03:10:20;43.10;;;22.50;;
68938;SDS011;59064;45.294;11.816;2024-02-23T03:12:46;45.60;;;25.50;;
68938;SDS011;59064;45.294;11.816;2024-02-23T03:15:11;47.40;;;27.10;;
68938;SDS011;59064;45.294;11.816;2024-02-23T03:17:37;45.50;;;25.70;;
68938;SDS011;59064;45.294;11.816;2024-02-23T03:20:03;47.10;;;26.30;;
68938;SDS011;59064;45.294;11.816;2024-02-23T03:22:36;47.50;;;25.90;;
68938;SDS011;59064;45.294;11.816;2024-02-23T03:25:04;47.90;;;26.80;;
68938;SDS011;59064;45.294;11.816;2024-02-23T03:27:34;44.40;;;25.30;;
68938;SDS011;59064;45.294;11.816;2024-02-23T03:30:04;48.80;;;27.00;;
68938;SDS011;59064;45.294;11.816;2024-02-23T03:32:33;53.30;;;28.60;;
68938;SDS011;59064;45.294;11.816;2024-02-23T03:35:02;48.50;;;25.30;;
68938;SDS011;59064;45.294;11.816;2024-02-23T03:37:28;51.20;;;26.50;;
68938;SDS011;59064;45.294;11.816;2024-02-23T03:39:54;49.30;;;27.00;;
68938;SDS011;59064;45.294;11.816;2024-02-23T03:42:20;47.30;;;26.00;;
68938;SDS011;59064;45.294;11.816;2024-02-23T03:44:45;40.20;;;23.70;;
68938;SDS011;59064;45.294;11.816;2024-02-23T03:47:10;47.60;;;26.50;;
68938;SDS011;59064;45.294;11.816;2024-02-23T03:49:37;44.00;;;23.60;;
68938;SDS011;59064;45.294;11.816;2024-02-23T03:52:03;47.50;;;26.60;;
68938;SDS011;59064;45.294;11.816;2024-02-23T03:54:29;51.30;;;27.30;;
68938;SDS011;59064;45.294;11.816;2024-02-23T03:56:56;52.20;;;27.20;;
68938;SDS011;59064;45.294;11.816;2024-02-23T03:59:25;54.60;;;27.90;;
68938;SDS011;59064;45.294;11.816;2024-02-23T04:01:50;47.70;;;24.30;;
68938;SDS011;59064;45.294;11.816;2024-02-23T04:04:16;53.20;;;27.60;;
68938;SDS011;59064;45.294;11.816;2024-02-23T04:06:41;55.30;;;27.20;;
68938;SDS011;59064;45.294;11.816;2024-02-23T04:09:07;43.00;;;23.20;;
68938;SDS011;59064;45.294;11.816;2024-02-23T04:11:33;48.70;;;25.70;;
68938;SDS011;59064;45.294;11.816;2024-02-23T04:13:59;46.30;;;23.80;;
68938;SDS011;59064;45.294;11.816;2024-02-23T04:16:25;42.40;;;22.30;;
68938;SDS011;59064;45.294;11.816;2024-02-23T04:18:52;47.50;;;26.60;;
68938;SDS011;59064;45.294;11.816;2024-02-23T04:21:21;49.90;;;26.40;;
68938;SDS011;59064;45.294;11.816;2024-02-23T04:23:47;46.60;;;24.30;;
68938;SDS011;59064;45.294;11.816;2024-02-23T04:26:12;41.30;;;20.90;;
68938;SDS011;59064;45.294;11.816;2024-02-23T04:28:39;48.60;;;27.00;;
68938;SDS011;59064;45.294;11.816;2024-02-23T04:31:05;46.20;;;24.60;;
68938;SDS011;59064;45.294;11.816;2024-02-23T04:33:30;48.80;;;26.60;;
68938;SDS011;59064;45.294;11.816;2024-02-23T04:35:56;50.50;;;25.20;;
68938;SDS011;59064;45.294;11.816;2024-02-23T04:38:21;52.70;;;27.40;;
68938;SDS011;59064;45.294;11.816;2024-02-23T04:40:47;50.40;;;27.20;;
68938;SDS011;59064;45.294;11.816;2024-02-23T04:43:12;47.90;;;26.10;;
68938;SDS011;59064;45.294;11.816;2024-02-23T04:45:38;43.50;;;23.00;;
68938;SDS011;59064;45.294;11.816;2024-02-23T04:48:03;49.40;;;25.80;;
68938;SDS011;59064;45.294;11.816;2024-02-23T04:50:29;40.00;;;22.30;;
68938;SDS011;59064;45.294;11.816;2024-02-23T04:52:55;50.60;;;26.50;;
68938;SDS011;59064;45.294;11.816;2024-02-23T04:55:20;46.30;;;24.80;;
68938;SDS011;59064;45.294;11.816;2024-02-23T04:57:46;48.90;;;24.60;;
68938;SDS011;59064;45.294;11.816;2024-02-23T05:00:11;49.50;;;25.50;;
68938;SDS011;59064;45.294;11.816;2024-02-23T05:02:37;48.70;;;25.30;;
68938;SDS011;59064;45.294;11.816;2024-02-23T05:05:03;45.50;;;25.30;;
68938;SDS011;59064;45.294;11.816;2024-02-23T05:07:33;48.50;;;26.10;;
68938;SDS011;59064;45.294;11.816;2024-02-23T05:09:59;44.60;;;24.40;;
68938;SDS011;59064;45.294;11.816;2024-02-23T05:12:25;39.40;;;21.90;;
68938;SDS011;59064;45.294;11.816;2024-02-23T05:14:51;46.10;;;23.30;;
68938;SDS011;59064;45.294;11.816;2024-02-23T05:17:16;50.10;;;26.10;;
68938;SDS011;59064;45.294;11.816;2024-02-23T05:19:43;45.40;;;24.60;;
68938;SDS011;59064;45.294;11.816;2024-02-23T05:22:09;43.10;;;22.30;;
68938;SDS011;59064;45.294;11.816;2024-02-23T05:24:34;40.20;;;21.90;;
68938;SDS011;59064;45.294;11.816;2024-02-23T05:27:00;49.30;;;23.90;;
68938;SDS011;59064;45.294;11.816;2024-02-23T05:29:28;48.60;;;25.70;;
68938;SDS011;59064;45.294;11.816;2024-02-23T05:31:53;46.90;;;24.20;;
68938;SDS011;59064;45.294;11.816;2024-02-23T05:34:19;43.40;;;24.70;;
68938;SDS011;59064;45.294;11.816;2024-02-23T05:36:45;45.20;;;25.20;;
68938;SDS011;59064;45.294;11.816;2024-02-23T05:39:12;39.30;;;22.10;;
68938;SDS011;59064;45.294;11.816;2024-02-23T05:41:40;44.40;;;22.30;;
68938;SDS011;59064;45.294;11.816;2024-02-23T05:44:06;41.10;;;22.40;;
68938;SDS011;59064;45.294;11.816;2024-02-23T05:46:35;42.70;;;22.70;;
68938;SDS011;59064;45.294;11.816;2024-02-23T05:49:02;42.50;;;23.90;;
68938;SDS011;59064;45.294;11.816;2024-02-23T05:51:29;39.30;;;21.40;;
68938;SDS011;59064;45.294;11.816;2024-02-23T05:53:55;45.00;;;23.10;;
68938;SDS011;59064;45.294;11.816;2024-02-23T05:56:21;37.80;;;21.10;;
68938;SDS011;59064;45.294;11.816;2024-02-23T05:58:49;40.10;;;20.20;;
68938;SDS011;59064;45.294;11.816;2024-02-23T06:01:14;31.90;;;17.30;;
68938;SDS011;59064;45.294;11.816;2024-02-23T06:03:42;29.70;;;15.90;;
68938;SDS011;59064;45.294;11.816;2024-02-23T06:06:07;34.00;;;17.90;;
68938;SDS011;59064;45.294;11.816;2024-02-23T06:08:33;35.40;;;18.40;;
68938;SDS011;59064;45.294;11.816;2024-02-23T06:10:59;33.10;;;17.80;;
68938;SDS011;59064;45.294;11.816;2024-02-23T06:13:25;27.00;;;14.30;;
68938;SDS011;59064;45.294;11.816;2024-02-23T06:15:51;26.00;;;9.20;;
68938;SDS011;59064;45.294;11.816;2024-02-23T06:18:16;12.50;;;6.50;;
68938;SDS011;59064;45.294;11.816;2024-02-23T06:20:41;11.90;;;4.50;;
68938;SDS011;59064;45.294;11.816;2024-02-23T06:23:07;7.30;;;3.10;;
68938;SDS011;59064;45.294;11.816;2024-02-23T06:25:32;8.00;;;3.30;;
68938;SDS011;59064;45.294;11.816;2024-02-23T06:27:58;9.60;;;3.50;;
68938;SDS011;59064;45.294;11.816;2024-02-23T06:30:23;10.40;;;2.80;;
68938;SDS011;59064;45.294;11.816;2024-02-23T06:32:49;9.20;;;3.10;;
68938;SDS011;59064;45.294;11.816;2024-02-23T06:35:15;8.70;;;3.30;;
68938;SDS011;59064;45.294;11.816;2024-02-23T06:37:40;8.10;;;3.20;;
68938;SDS011;59064;45.294;11.816;2024-02-23T06:40:06;12.00;;;3.30;;
68938;SDS011;59064;45.294;11.816;2024-02-23T06:42:33;8.80;;;3.20;;
68938;SDS011;59064;45.294;11.816;2024-02-23T06:44:58;9.00;;;3.90;;
68938;SDS011;59064;45.294;11.816;2024-02-23T06:47:24;8.10;;;3.00;;
68938;SDS011;59064;45.294;11.816;2024-02-23T06:49:50;9.40;;;3.40;;
68938;SDS011;59064;45.294;11.816;2024-02-23T06:52:16;7.50;;;3.30;;
68938;SDS011;59064;45.294;11.816;2024-02-23T06:54:43;7.00;;;3.30;;
68938;SDS011;59064;45.294;11.816;2024-02-23T06:57:09;9.40;;;3.40;;
68938;SDS011;59064;45.294;11.816;2024-02-23T06:59:34;7.10;;;3.10;;
68938;SDS011;59064;45.294;11.816;2024-02-23T07:01:59;7.50;;;3.30;;
68938;SDS011;59064;45.294;11.816;2024-02-23T07:04:25;11.40;;;3.20;;
68938;SDS011;59064;45.294;11.816;2024-02-23T07:06:50;6.80;;;2.50;;
68938;SDS011;59064;45.294;11.816;2024-02-23T07:09:16;6.70;;;2.50;;
68938;SDS011;59064;45.294;11.816;2024-02-23T07:11:41;10.10;;;2.80;;
68938;SDS011;59064;45.294;11.816;2024-02-23T07:14:09;8.00;;;3.30;;
68938;SDS011;59064;45.294;11.816;2024-02-23T07:16:38;5.70;;;2.70;;
68938;SDS011;59064;45.294;11.816;2024-02-23T07:19:06;7.10;;;3.00;;
68938;SDS011;59064;45.294;11.816;2024-02-23T07:21:32;6.80;;;2.70;;
68938;SDS011;59064;45.294;11.816;2024-02-23T07:23:58;10.30;;;3.00;;
68938;SDS011;59064;45.294;11.816;2024-02-23T07:26:23;6.20;;;2.20;;
68938;SDS011;59064;45.294;11.816;2024-02-23T07:28:48;9.20;;;2.90;;
68938;SDS011;59064;45.294;11.816;2024-02-23T07:31:15;5.50;;;2.70;;
68938;SDS011;59064;45.294;11.816;2024-02-23T07:33:41;7.80;;;2.90;;
68938;SDS011;59064;45.294;11.816;2024-02-23T07:36:13;11.40;;;2.90;;
68938;SDS011;59064;45.294;11.816;2024-02-23T07:38:39;11.50;;;2.90;;
68938;SDS011;59064;45.294;11.816;2024-02-23T07:41:05;8.50;;;3.20;;
68938;SDS011;59064;45.294;11.816;2024-02-23T07:43:31;10.40;;;4.70;;
68938;SDS011;59064;45.294;11.816;2024-02-23T07:45:56;9.80;;;3.10;;
68938;SDS011;59064;45.294;11.816;2024-02-23T07:48:22;8.70;;;3.20;;
68938;SDS011;59064;45.294;11.816;2024-02-23T07:50:47;8.30;;;2.90;;
68938;SDS011;59064;45.294;11.816;2024-02-23T07:53:13;11.90;;;3.30;;
68938;SDS011;59064;45.294;11.816;2024-02-23T07:55:38;9.30;;;3.00;;
68938;SDS011;59064;45.294;11.816;2024-02-23T07:58:04;8.00;;;3.30;;
68938;SDS011;59064;45.294;11.816;2024-02-23T08:00:29;9.20;;;3.20;;
68938;SDS011;59064;45.294;11.816;2024-02-23T08:02:55;8.60;;;2.90;;
68938;SDS011;59064;45.294;11.816;2024-02-23T08:05:25;8.20;;;2.70;;
68938;SDS011;59064;45.294;11.816;2024-02-23T08:07:50;6.50;;;2.80;;
68938;SDS011;59064;45.294;11.816;2024-02-23T08:10:16;8.00;;;3.00;;
68938;SDS011;59064;45.294;11.816;2024-02-23T08:12:41;7.30;;;2.80;;
68938;SDS011;59064;45.294;11.816;2024-02-23T08:15:07;5.90;;;2.60;;
68938;SDS011;59064;45.294;11.816;2024-02-23T08:17:33;6.50;;;2.70;;
68938;SDS011;59064;45.294;11.816;2024-02-23T08:19:58;7.80;;;3.60;;
68938;SDS011;59064;45.294;11.816;2024-02-23T08:22:23;8.70;;;3.40;;
68938;SDS011;59064;45.294;11.816;2024-02-23T08:24:49;6.50;;;2.90;;
68938;SDS011;59064;45.294;11.816;2024-02-23T08:27:14;8.10;;;3.10;;
68938;SDS011;59064;45.294;11.816;2024-02-23T08:29:41;8.80;;;3.70;;
68938;SDS011;59064;45.294;11.816;2024-02-23T08:32:06;7.90;;;3.50;;
68938;SDS011;59064;45.294;11.816;2024-02-23T08:34:32;8.30;;;3.50;;
68938;SDS011;59064;45.294;11.816;2024-02-23T08:36:59;7.50;;;3.80;;
68938;SDS011;59064;45.294;11.816;2024-02-23T08:39:26;10.40;;;4.10;;
68938;SDS011;59064;45.294;11.816;2024-02-23T08:41:52;8.10;;;3.20;;
68938;SDS011;59064;45.294;11.816;2024-02-23T08:44:18;6.60;;;3.40;;
68938;SDS011;59064;45.294;11.816;2024-02-23T08:46:43;13.70;;;4.00;;
68938;SDS011;59064;45.294;11.816;2024-02-23T08:49:09;10.80;;;4.40;;
68938;SDS011;59064;45.294;11.816;2024-02-23T08:51:34;10.90;;;3.40;;
68938;SDS011;59064;45.294;11.816;2024-02-23T08:54:00;8.40;;;3.80;;
68938;SDS011;59064;45.294;11.816;2024-02-23T08:56:30;11.00;;;4.20;;
68938;SDS011;59064;45.294;11.816;2024-02-23T08:58:57;9.10;;;3.60;;
68938;SDS011;59064;45.294;11.816;2024-02-23T09:01:23;9.10;;;4.20;;
68938;SDS011;59064;45.294;11.816;2024-02-23T09:03:49;8.30;;;3.70;;
68938;SDS011;59064;45.294;11.816;2024-02-23T09:06:15;8.40;;;3.70;;
68938;SDS011;59064;45.294;11.816;2024-02-23T09:08:40;9.60;;;4.00;;
68938;SDS011;59064;45.294;11.816;2024-02-23T09:11:06;10.90;;;4.00;;
68938;SDS011;59064;45.294;11.816;2024-02-23T09:13:31;9.80;;;3.80;;
68938;SDS011;59064;45.294;11.816;2024-02-23T09:15:57;7.40;;;3.70;;
68938;SDS011;59064;45.294;11.816;2024-02-23T09:18:25;9.00;;;3.90;;
68938;SDS011;59064;45.294;11.816;2024-02-23T09:20:51;8.50;;;3.80;;
68938;SDS011;59064;45.294;11.816;2024-02-23T09:23:17;7.80;;;4.40;;
68938;SDS011;59064;45.294;11.816;2024-02-23T09:25:43;9.30;;;4.80;;
68938;SDS011;59064;45.294;11.816;2024-02-23T09:28:08;12.90;;;3.90;;
68938;SDS011;59064;45.294;11.816;2024-02-23T09:30:36;7.80;;;3.40;;
68938;SDS011;59064;45.294;11.816;2024-02-23T09:33:02;8.10;;;3.70;;
68938;SDS011;59064;45.294;11.816;2024-02-23T09:35:31;8.90;;;4.00;;
68938;SDS011;59064;45.294;11.816;2024-02-23T09:37:57;12.10;;;3.90;;
68938;SDS011;59064;45.294;11.816;2024-02-23T09:40:23;8.80;;;3.90;;
68938;SDS011;59064;45.294;11.816;2024-02-23T09:42:55;11.80;;;4.20;;
68938;SDS011;59064;45.294;11.816;2024-02-23T09:45:22;9.00;;;4.00;;
68938;SDS011;59064;45.294;11.816;2024-02-23T09:47:50;6.30;;;4.00;;
68938;SDS011;59064;45.294;11.816;2024-02-23T09:50:22;11.10;;;4.40;;
68938;SDS011;59064;45.294;11.816;2024-02-23T09:52:49;11.50;;;4.30;;
68938;SDS011;59064;45.294;11.816;2024-02-23T09:55:19;10.30;;;4.90;;
68938;SDS011;59064;45.294;11.816;2024-02-23T09:57:47;11.80;;;5.20;;
68938;SDS011;59064;45.294;11.816;2024-02-23T10:00:15;7.90;;;3.70;;
68938;SDS011;59064;45.294;11.816;2024-02-23T10:02:42;8.10;;;3.90;;
68938;SDS011;59064;45.294;11.816;2024-02-23T10:05:10;9.60;;;4.60;;
68938;SDS011;59064;45.294;11.816;2024-02-23T10:07:37;12.40;;;4.40;;
68938;SDS011;59064;45.294;11.816;2024-02-23T10:10:08;10.90;;;4.60;;
68938;SDS011;59064;45.294;11.816;2024-02-23T10:12:36;11.00;;;5.30;;
68938;SDS011;59064;45.294;11.816;2024-02-23T10:15:02;14.40;;;5.20;;
68938;SDS011;59064;45.294;11.816;2024-02-23T10:17:31;10.50;;;5.00;;
68938;SDS011;59064;45.294;11.816;2024-02-23T10:19:58;15.20;;;4.50;;
68938;SDS011;59064;45.294;11.816;2024-02-23T10:22:24;10.60;;;4.80;;
68938;SDS011;59064;45.294;11.816;2024-02-23T10:24:53;11.50;;;4.20;;
68938;SDS011;59064;45.294;11.816;2024-02-23T10:27:18;10.00;;;4.70;;
68938;SDS011;59064;45.294;11.816;2024-02-23T10:29:44;10.00;;;5.00;;
68938;SDS011;59064;45.294;11.816;2024-02-23T10:32:14;14.70;;;4.00;;
68938;SDS011;59064;45.294;11.816;2024-02-23T10:34:41;10.20;;;4.60;;
68938;SDS011;59064;45.294;11.816;2024-02-23T10:37:09;14.80;;;5.30;;
68938;SDS011;59064;45.294;11.816;2024-02-23T10:39:36;11.90;;;5.60;;
68938;SDS011;59064;45.294;11.816;2024-02-23T10:42:07;12.20;;;5.70;;
68938;SDS011;59064;45.294;11.816;2024-02-23T10:44:34;9.90;;;5.10;;
68938;SDS011;59064;45.294;11.816;2024-02-23T10:47:00;13.60;;;5.80;;
68938;SDS011;59064;45.294;11.816;2024-02-23T10:49:28;13.90;;;5.90;;
68938;SDS011;59064;45.294;11.816;2024-02-23T10:51:54;8.70;;;3.70;;
68938;SDS011;59064;45.294;11.816;2024-02-23T10:54:21;11.80;;;7.20;;
68938;SDS011;59064;45.294;11.816;2024-02-23T10:56:48;13.00;;;7.20;;
68938;SDS011;59064;45.294;11.816;2024-02-23T10:59:15;13.00;;;7.50;;
68938;SDS011;59064;45.294;11.816;2024-02-23T11:01:49;12.50;;;7.40;;
68938;SDS011;59064;45.294;11.816;2024-02-23T11:04:18;15.00;;;8.30;;
68938;SDS011;59064;45.294;11.816;2024-02-23T11:06:49;14.80;;;8.00;;
68938;SDS011;59064;45.294;11.816;2024-02-23T11:09:15;10.20;;;6.40;;
68938;SDS011;59064;45.294;11.816;2024-02-23T11:11:50;13.30;;;6.90;;
68938;SDS011;59064;45.294;11.816;2024-02-23T11:14:29;13.20;;;4.80;;
68938;SDS011;59064;45.294;11.816;2024-02-23T11:17:03;10.60;;;5.20;;
68938;SDS011;59064;45.294;11.816;2024-02-23T11:19:33;13.40;;;6.00;;
68938;SDS011;59064;45.294;11.816;2024-02-23T11:22:00;11.60;;;5.70;;
68938;SDS011;59064;45.294;11.816;2024-02-23T11:24:28;12.30;;;5.00;;
68938;SDS011;59064;45.294;11.816;2024-02-23T11:26:58;13.70;;;7.20;;
68938;SDS011;59064;45.294;11.816;2024-02-23T11:29:34;12.50;;;7.40;;
68938;SDS011;59064;45.294;11.816;2024-02-23T11:32:11;11.90;;;7.50;;
68938;SDS011;59064;45.294;11.816;2024-02-23T11:34:38;12.80;;;7.50;;
68938;SDS011;59064;45.294;11.816;2024-02-23T11:37:10;12.80;;;7.40;;
68938;SDS011;59064;45.294;11.816;2024-02-23T11:39:37;11.00;;;7.00;;
68938;SDS011;59064;45.294;11.816;2024-02-23T11:42:04;11.40;;;7.20;;
68938;SDS011;59064;45.294;11.816;2024-02-23T11:44:33;11.80;;;7.20;;
68938;SDS011;59064;45.294;11.816;2024-02-23T11:47:02;11.70;;;6.90;;
68938;SDS011;59064;45.294;11.816;2024-02-23T11:49:28;10.60;;;6.70;;
68938;SDS011;59064;45.294;11.816;2024-02-23T11:51:54;10.70;;;5.50;;
68938;SDS011;59064;45.294;11.816;2024-02-23T11:54:20;10.40;;;7.20;;
68938;SDS011;59064;45.294;11.816;2024-02-23T11:56:47;10.70;;;7.20;;
68938;SDS011;59064;45.294;11.816;2024-02-23T11:59:14;15.90;;;7.60;;
68938;SDS011;59064;45.294;11.816;2024-02-23T12:01:43;13.00;;;7.70;;
68938;SDS011;59064;45.294;11.816;2024-02-23T12:04:08;12.00;;;8.10;;
68938;SDS011;59064;45.294;11.816;2024-02-23T12:06:34;11.90;;;8.10;;
68938;SDS011;59064;45.294;11.816;2024-02-23T12:09:00;14.20;;;8.40;;
68938;SDS011;59064;45.294;11.816;2024-02-23T12:11:26;13.10;;;8.30;;
68938;SDS011;59064;45.294;11.816;2024-02-23T12:13:52;11.80;;;8.40;;
68938;SDS011;59064;45.294;11.816;2024-02-23T12:16:20;13.30;;;8.80;;
68938;SDS011;59064;45.294;11.816;2024-02-23T12:18:55;15.60;;;9.80;;
68938;SDS011;59064;45.294;11.816;2024-02-23T12:21:21;16.30;;;10.00;;
68938;SDS011;59064;45.294;11.816;2024-02-23T12:23:51;12.20;;;9.10;;
68938;SDS011;59064;45.294;11.816;2024-02-23T12:26:17;19.30;;;12.70;;
68938;SDS011;59064;45.294;11.816;2024-02-23T12:28:43;18.00;;;11.60;;
68938;SDS011;59064;45.294;11.816;2024-02-23T12:31:10;18.80;;;13.30;;
68938;SDS011;59064;45.294;11.816;2024-02-23T12:33:38;17.90;;;12.60;;
68938;SDS011;59064;45.294;11.816;2024-02-23T12:36:08;22.20;;;15.00;;
68938;SDS011;59064;45.294;11.816;2024-02-23T12:38:34;22.30;;;13.20;;
68938;SDS011;59064;45.294;11.816;2024-02-23T12:41:00;19.10;;;13.50;;
68938;SDS011;59064;45.294;11.816;2024-02-23T12:43:27;18.80;;;13.60;;
68938;SDS011;59064;45.294;11.816;2024-02-23T12:45:53;16.60;;;12.10;;
68938;SDS011;59064;45.294;11.816;2024-02-23T12:48:19;18.00;;;12.00;;
68938;SDS011;59064;45.294;11.816;2024-02-23T12:50:46;17.90;;;12.70;;
68938;SDS011;59064;45.294;11.816;2024-02-23T12:56:02;19.10;;;12.70;;
68938;SDS011;59064;45.294;11.816;2024-02-23T12:58:35;21.10;;;14.10;;
68938;SDS011;59064;45.294;11.816;2024-02-23T13:01:01;19.40;;;12.10;;
68938;SDS011;59064;45.294;11.816;2024-02-23T13:03:27;18.20;;;12.50;;
68938;SDS011;59064;45.294;11.816;2024-02-23T13:05:57;18.60;;;12.50;;
68938;SDS011;59064;45.294;11.816;2024-02-23T13:08:23;18.40;;;12.70;;
68938;SDS011;59064;45.294;11.816;2024-02-23T13:10:49;18.20;;;12.30;;
68938;SDS011;59064;45.294;11.816;2024-02-23T13:13:15;19.40;;;12.30;;
68938;SDS011;59064;45.294;11.816;2024-02-23T13:15:43;21.10;;;14.40;;
68938;SDS011;59064;45.294;11.816;2024-02-23T13:18:10;18.10;;;12.40;;
68938;SDS011;59064;45.294;11.816;2024-02-23T13:20:36;20.50;;;13.90;;
68938;SDS011;59064;45.294;11.816;2024-02-23T13:23:02;18.30;;;13.20;;
68938;SDS011;59064;45.294;11.816;2024-02-23T13:25:28;20.00;;;12.40;;
68938;SDS011;59064;45.294;11.816;2024-02-23T13:27:54;20.40;;;14.00;;
68938;SDS011;59064;45.294;11.816;2024-02-23T13:30:19;19.70;;;15.30;;
68938;SDS011;59064;45.294;11.816;2024-02-23T13:32:45;19.50;;;12.40;;
68938;SDS011;59064;45.294;11.816;2024-02-23T13:35:11;17.20;;;13.20;;
68938;SDS011;59064;45.294;11.816;2024-02-23T13:37:39;22.90;;;15.40;;
68938;SDS011;59064;45.294;11.816;2024-02-23T13:40:05;22.20;;;15.30;;
68938;SDS011;59064;45.294;11.816;2024-02-23T13:42:36;24.00;;;15.50;;
68938;SDS011;59064;45.294;11.816;2024-02-23T13:45:06;28.20;;;17.60;;
68938;SDS011;59064;45.294;11.816;2024-02-23T13:47:34;31.00;;;19.30;;
68938;SDS011;59064;45.294;11.816;2024-02-23T13:50:00;22.60;;;14.80;;
68938;SDS011;59064;45.294;11.816;2024-02-23T13:52:26;21.30;;;15.20;;
68938;SDS011;59064;45.294;11.816;2024-02-23T13:54:52;23.90;;;14.50;;
68938;SDS011;59064;45.294;11.816;2024-02-23T13:57:18;21.50;;;15.50;;
68938;SDS011;59064;45.294;11.816;2024-02-23T13:59:43;26.80;;;18.40;;
68938;SDS011;59064;45.294;11.816;2024-02-23T14:02:09;21.70;;;15.40;;
68938;SDS011;59064;45.294;11.816;2024-02-23T14:04:35;25.80;;;16.40;;
68938;SDS011;59064;45.294;11.816;2024-02-23T14:07:00;27.90;;;18.80;;
68938;SDS011;59064;45.294;11.816;2024-02-23T14:09:26;23.70;;;14.30;;
68938;SDS011;59064;45.294;11.816;2024-02-23T14:11:51;23.70;;;16.00;;
68938;SDS011;59064;45.294;11.816;2024-02-23T14:14:17;20.40;;;13.10;;